LPPS Airport Information

Runway Information
Runway 01 Length 0 ft width 0 ft
Elevation 240 ft Threshold 0 ft Heading 0
Runway 19 Length 0 ft Width 0 ft
Elevation 341 ft Threshold 0 ft Heading 0
Runway 18 Length 9861 ft width 148 ft
Elevation 240 ft Threshold 0 ft Heading 178
Runway 36 Length 9861 ft Width 148 ft
Elevation 338 ft Threshold 0 ft Heading 358
Airport Frequencies
Type GCA Name GCA Frequency 123.3 MHZ
Type TWR Name TWR Frequency 118.4 MHZ
Airport Navaids
Type NDB Name Porto Santo Frequency 338 KHZ
Type VOR-DME Name Porto Santo Frequency 114900 KHZ
Type TACAN Name Porto Santo Frequency 116300 KHZ
Airport Weather Information & NOTAM
ADDS - METARS form results

(2313 UTC 18 June 2018)
 
METAR text: LPPS 182300Z 33011KT 9999 SCT008 BKN030 18/16 Q1019
Conditions at: LPPS (PORTO SANTO ISLA, PT) observed 2300 UTC 18 June 2018
Temperature: 18.0°C (64°F)
Dewpoint: 16.0°C (61°F) [RH = 88%]
Pressure (altimeter): 30.09 inches Hg (1019.0 mb)
Winds: from the NNW (330 degrees) at 13 MPH (11 knots; 5.7 m/s)
Visibility: 6 or more miles (10+ km)
Ceiling: 3000 feet AGL
Clouds: scattered clouds at 800 feet AGL
broken clouds at 3000 feet AGL
Weather: no significant weather observed at this time

METAR text: LPPS 182230Z 34011KT 8000 SCT006 BKN030 18/17 Q1020
Conditions at: LPPS (PORTO SANTO ISLA, PT) observed 2230 UTC 18 June 2018
Temperature: 18.0°C (64°F)
Dewpoint: 17.0°C (63°F) [RH = 94%]
Pressure (altimeter): 30.12 inches Hg (1020.0 mb)
Winds: from the NNW (340 degrees) at 13 MPH (11 knots; 5.7 m/s)
Visibility: 5 miles (8 km)
Ceiling: 3000 feet AGL
Clouds: scattered clouds at 600 feet AGL
broken clouds at 3000 feet AGL
Weather: no significant weather observed at this time